Time;durP1;ratioP1;P1;durP2;ratioP2;P2;SDS_P1;SDS_P2;PMS_P1;PMS_P2;Temp;Humidity;BMP_temperature;BMP_pressure;BME280_temperature;BME280_humidity;BME280_pressure;Samples;Min_cycle;Max_cycle;Signal;HPM_P1;HPM_P2
2022/12/28 00:00:41;;;;;;;13.23;4.40;;;4.90;99.90;;;;;;6129356;23;20021;-83
2022/12/28 00:03:13;;;;;;;11.03;4.13;;;5.60;99.90;;;;;;6154958;23;20438;-84
2022/12/28 00:05:48;;;;;;;10.63;4.00;;;5.50;99.90;;;;;;6155353;23;20016;-83
2022/12/28 00:08:16;;;;;;;10.73;3.70;;;5.20;99.90;;;;;;6122085;23;20655;-84
2022/12/28 00:10:42;;;;;;;10.53;4.23;;;4.90;99.90;;;;;;6129725;23;20017;-83
2022/12/28 00:13:08;;;;;;;12.73;3.90;;;4.70;99.90;;;;;;6129396;23;20021;-83
2022/12/28 00:15:36;;;;;;;15.70;4.20;;;5.80;99.90;;;;;;6128286;23;20060;-83
2022/12/28 00:18:19;;;;;;;12.37;4.70;;;4.20;99.90;;;;;;6128962;23;20017;-83
2022/12/28 00:21:01;;;;;;;12.38;4.55;;;4.80;99.90;;;;;;6129548;23;20366;-84
2022/12/28 00:23:42;;;;;;;10.67;4.30;;;4.60;99.90;;;;;;6127882;23;20024;-83
2022/12/28 00:26:16;;;;;;;12.40;4.80;;;4.40;99.90;;;;;;6155689;23;20088;-84
2022/12/28 00:29:00;;;;;;;12.73;4.50;;;4.30;99.90;;;;;;6129478;23;20022;-84
2022/12/28 00:31:35;;;;;;;16.30;4.60;;;4.80;99.90;;;;;;6127842;23;20025;-83
2022/12/28 00:34:02;;;;;;;9.57;4.20;;;4.70;99.90;;;;;;6129066;23;20450;-83
2022/12/28 00:36:42;;;;;;;12.63;4.67;;;4.50;99.90;;;;;;6154702;23;20021;-83
2022/12/28 00:39:49;;;;;;;13.37;4.90;;;6.20;99.90;;;;;;6155710;23;20017;-84
2022/12/28 00:42:21;;;;;;;13.97;5.10;;;4.70;99.90;;;;;;6160909;23;20033;-83
2022/12/28 00:45:00;;;;;;;13.80;4.27;;;4.80;99.90;;;;;;6148623;23;20014;-83
2022/12/28 00:47:37;;;;;;;12.87;5.07;;;4.90;99.90;;;;;;6155397;23;20076;-84
2022/12/28 00:50:12;;;;;;;13.63;5.60;;;6.60;99.90;;;;;;6153599;23;20013;-84
2022/12/28 00:55:32;;;;;;;15.00;5.23;;;4.70;99.90;;;;;;6126106;23;20347;-84
2022/12/28 00:58:06;;;;;;;13.47;5.50;;;5.40;99.90;;;;;;6098819;23;20054;-85
2022/12/28 01:00:36;;;;;;;10.23;4.80;;;4.40;99.90;;;;;;6125729;23;20018;-84
2022/12/28 01:03:02;;;;;;;13.90;5.27;;;4.80;99.90;;;;;;6099179;23;20026;-84
2022/12/28 01:05:36;;;;;;;13.67;5.40;;;6.00;99.90;;;;;;6098919;23;20324;-84
2022/12/28 01:08:11;;;;;;;15.10;5.17;;;5.50;99.90;;;;;;6099069;23;20018;-84
2022/12/28 01:10:46;;;;;;;12.40;4.83;;;4.80;99.90;;;;;;6093192;23;20040;-84
2022/12/28 01:13:12;;;;;;;11.03;5.13;;;4.40;99.90;;;;;;6097475;23;20335;-84
2022/12/28 01:18:34;;;;;;;11.37;5.40;;;4.60;99.90;;;;;;6098641;23;20045;-84
2022/12/28 01:21:06;;;;;;;12.33;5.33;;;4.50;99.90;;;;;;6099648;23;20021;-84
2022/12/28 01:23:41;;;;;;;14.83;6.03;;;4.50;99.90;;;;;;6101006;23;20028;-84
2022/12/28 01:26:16;;;;;;;12.73;5.33;;;5.30;99.90;;;;;;6098635;23;20018;-84
2022/12/28 01:28:42;;;;;;;14.53;5.63;;;5.50;99.90;;;;;;6099851;23;20096;-84
2022/12/28 01:31:14;;;;;;;16.40;6.03;;;5.90;99.90;;;;;;6098499;23;20486;-84
2022/12/28 01:33:55;;;;;;;14.33;6.03;;;4.50;99.90;;;;;;6099632;23;20049;-84
2022/12/28 01:36:31;;;;;;;12.53;5.83;;;5.00;99.90;;;;;;6099050;23;20013;-84
2022/12/28 01:39:12;;;;;;;15.50;6.10;;;4.50;99.90;;;;;;6126140;23;20081;-83
2022/12/28 01:41:43;;;;;;;15.03;6.00;;;6.80;99.90;;;;;;6099216;23;20113;-83
2022/12/28 01:44:09;;;;;;;12.57;6.23;;;4.60;99.90;;;;;;6099385;23;20018;-84
2022/12/28 01:47:09;;;;;;;14.10;6.13;;;6.80;99.90;;;;;;6099656;23;20517;-84
2022/12/28 01:50:01;;;;;;;13.40;6.00;;;4.60;99.90;;;;;;6088398;23;20098;-84
2022/12/28 01:52:51;;;;;;;13.43;5.40;;;5.00;99.90;;;;;;6176251;23;20110;-83
2022/12/28 01:55:42;;;;;;;13.70;5.73;;;5.60;99.90;;;;;;6183262;23;20025;-84
2022/12/28 01:58:19;;;;;;;15.17;5.77;;;5.70;99.90;;;;;;6185070;23;20071;-85
2022/12/28 02:00:45;;;;;;;14.63;5.40;;;4.90;99.90;;;;;;6183617;23;20017;-84
2022/12/28 02:03:32;;;;;;;13.63;5.40;;;6.10;99.90;;;;;;6184498;23;20076;-83
2022/12/28 02:06:02;;;;;;;12.40;5.23;;;4.90;99.90;;;;;;6184558;23;20013;-83
2022/12/28 02:09:07;;;;;;;14.57;5.60;;;4.40;99.90;;;;;;6156971;23;20024;-83
2022/12/28 02:11:33;;;;;;;16.10;5.65;;;5.00;99.90;;;;;;6182702;23;20397;-84
2022/12/28 02:14:06;;;;;;;14.50;5.47;;;5.90;99.90;;;;;;6172425;23;20025;-83
2022/12/28 02:16:43;;;;;;;13.77;5.37;;;4.90;99.90;;;;;;6127277;23;20021;-83
2022/12/28 02:19:40;;;;;;;13.67;5.60;;;5.20;99.90;;;;;;6154862;23;20028;-84
2022/12/28 02:22:08;;;;;;;13.47;4.97;;;5.70;99.90;;;;;;6147420;23;20083;-84
2022/12/28 02:25:07;;;;;;;12.00;4.77;;;5.00;99.90;;;;;;6130211;23;20387;-84
2022/12/28 02:28:24;;;;;;;13.80;5.27;;;5.30;99.90;;;;;;6130552;23;20017;-84
2022/12/28 02:31:41;;;;;;;13.77;4.93;;;6.40;99.90;;;;;;6129532;23;20018;-84
2022/12/28 02:34:54;;;;;;;16.50;5.43;;;5.50;99.90;;;;;;6066382;23;20097;-84
2022/12/28 02:37:57;;;;;;;11.27;4.97;;;5.30;99.90;;;;;;6034719;23;20496;-84
2022/12/28 02:40:47;;;;;;;13.90;5.33;;;5.30;99.90;;;;;;6013664;23;20023;-83
2022/12/28 02:43:27;;;;;;;12.70;5.70;;;5.20;99.90;;;;;;6012698;23;20156;-84
2022/12/28 02:53:08;;;;;;;13.93;6.70;;;5.20;99.90;;;;;;6037198;23;20030;-84
2022/12/28 02:56:07;;;;;;;14.17;6.13;;;5.30;99.90;;;;;;6156586;23;20594;-84
2022/12/28 02:59:07;;;;;;;13.97;6.30;;;5.20;99.90;;;;;;6129285;23;20156;-84
2022/12/28 03:02:18;;;;;;;15.03;6.40;;;5.30;99.90;;;;;;6155653;23;20014;-83
2022/12/28 03:08:13;;;;;;;15.27;6.80;;;5.20;99.90;;;;;;6155409;23;20017;-83
2022/12/28 03:08:19;;;;;;;13.37;6.67;;;5.40;99.90;;;;;;6137017;23;20049;-84
2022/12/28 03:11:03;;;;;;;13.60;6.60;;;5.30;99.90;;;;;;6156081;23;20010;-84
2022/12/28 03:14:02;;;;;;;;;;;5.20;99.90;;;;;;6130480;23;20017;-84
2022/12/28 03:32:15;;;;;;;17.27;7.40;;;5.60;99.90;;;;;;6128298;23;20080;-84
2022/12/28 03:34:47;;;;;;;20.33;8.70;;;5.30;99.90;;;;;;6155701;23;20009;-84
2022/12/28 03:38:12;;;;;;;17.07;7.87;;;4.10;99.90;;;;;;6156357;23;20021;-84
2022/12/28 03:43:51;;;;;;;17.83;8.20;;;5.40;99.90;;;;;;6129764;23;20017;-84
2022/12/28 03:46:57;;;;;;;18.50;7.60;;;6.70;99.90;;;;;;6173325;23;20043;-83
2022/12/28 03:49:41;;;;;;;19.40;8.03;;;5.70;99.90;;;;;;6182032;23;20179;-83
2022/12/28 03:52:08;;;;;;;;;;;5.30;99.90;;;;;;6186516;23;20092;-83
2022/12/28 03:54:43;;;;;;;16.60;7.30;;;6.70;99.90;;;;;;6158744;23;20328;-84
2022/12/28 03:57:21;;;;;;;15.67;6.93;;;6.10;99.90;;;;;;6159059;23;20013;-84
2022/12/28 03:59:55;;;;;;;17.43;7.70;;;5.40;99.90;;;;;;6158973;23;20100;-84
2022/12/28 04:02:39;;;;;;;18.80;7.10;;;5.60;99.90;;;;;;6157584;23;20021;-85
2022/12/28 04:05:17;;;;;;;16.50;7.07;;;6.50;99.90;;;;;;6186064;23;20017;-85
2022/12/28 04:07:46;;;;;;;14.17;7.17;;;7.60;99.90;;;;;;6184883;23;20017;-84
2022/12/28 04:14:48;;;;;;;13.27;6.57;;;7.50;99.90;;;;;;6185276;23;20028;-84
2022/12/28 04:17:17;;;;;;;16.00;7.03;;;5.90;99.90;;;;;;6158014;23;20025;-84
2022/12/28 04:19:48;;;;;;;17.40;6.53;;;5.20;99.90;;;;;;6185741;23;20013;-84
2022/12/28 04:22:33;;;;;;;14.27;7.00;;;5.80;99.90;;;;;;6157335;23;20017;-84
2022/12/28 04:25:11;;;;;;;14.57;6.80;;;5.70;99.90;;;;;;6185013;23;20017;-84
2022/12/28 04:27:46;;;;;;;13.13;6.63;;;5.50;99.90;;;;;;6185361;23;20016;-84
2022/12/28 04:30:11;;;;;;;16.93;7.20;;;4.70;99.90;;;;;;6157722;23;20092;-83
2022/12/28 04:32:37;;;;;;;12.63;5.80;;;6.00;99.90;;;;;;6158969;23;20136;-83
2022/12/28 04:35:12;;;;;;;17.17;7.13;;;5.70;99.90;;;;;;6185099;23;20091;-84
2022/12/28 04:37:37;;;;;;;12.43;5.97;;;6.60;99.90;;;;;;6184643;23;20009;-84
2022/12/28 04:40:12;;;;;;;14.13;5.80;;;7.00;99.90;;;;;;6158416;23;20111;-83
2022/12/28 04:42:43;;;;;;;14.10;6.50;;;6.00;99.90;;;;;;6184584;23;20071;-84
2022/12/28 04:45:09;;;;;;;13.03;6.57;;;6.30;99.90;;;;;;6184628;23;20020;-84
2022/12/28 04:47:50;;;;;;;14.10;6.27;;;5.80;99.90;;;;;;6184762;23;20017;-84
2022/12/28 04:50:16;;;;;;;13.37;6.20;;;7.00;99.90;;;;;;6157069;23;20032;-84
2022/12/28 04:53:06;;;;;;;13.80;5.83;;;5.30;99.90;;;;;;6159951;23;20013;-83
2022/12/28 04:55:38;;;;;;;13.80;6.53;;;5.00;99.90;;;;;;6183756;23;20021;-83
2022/12/28 04:58:13;;;;;;;13.47;5.97;;;7.70;99.90;;;;;;6184231;23;20009;-83
2022/12/28 05:01:03;;;;;;;12.27;5.40;;;7.10;99.90;;;;;;6159958;23;20021;-84
2022/12/28 05:03:46;;;;;;;12.20;6.20;;;6.00;99.90;;;;;;6157554;23;20024;-83
2022/12/28 05:06:28;;;;;;;12.47;5.80;;;7.70;99.90;;;;;;6157013;23;20338;-84
2022/12/28 05:09:18;;;;;;;13.50;5.93;;;6.80;99.90;;;;;;6158207;23;20017;-84
2022/12/28 05:11:46;;;;;;;12.97;5.53;;;6.10;99.90;;;;;;6183609;23;20088;-84
2022/12/28 05:14:21;;;;;;;11.20;5.60;;;5.60;99.90;;;;;;6158126;23;20013;-83
2022/12/28 05:16:52;;;;;;;13.87;5.97;;;6.30;99.90;;;;;;6158296;23;20075;-84
2022/12/28 05:19:18;;;;;;;13.80;6.37;;;6.20;99.90;;;;;;6157209;23;20017;-84
2022/12/28 05:21:56;;;;;;;12.07;5.57;;;6.20;99.90;;;;;;6184993;23;20023;-84
2022/12/28 05:24:30;;;;;;;14.23;6.03;;;5.60;99.90;;;;;;6184393;23;20434;-83
2022/12/28 05:26:56;;;;;;;12.00;6.40;;;6.20;99.90;;;;;;6184130;23;20028;-84
2022/12/28 05:29:27;;;;;;;13.80;6.47;;;7.60;99.90;;;;;;6184773;23;20465;-83
2022/12/28 05:32:07;;;;;;;12.17;5.70;;;6.30;99.90;;;;;;6157625;23;20441;-84
2022/12/28 05:35:29;;;;;;;12.47;6.10;;;6.40;99.90;;;;;;6183541;23;20024;-84
2022/12/28 05:38:22;;;;;;;14.95;6.75;;;7.00;99.90;;;;;;6068944;23;20046;-83
2022/12/28 05:44:04;;;;;;;14.77;6.83;;;6.50;99.90;;;;;;6044961;23;20444;-83
2022/12/28 05:46:34;;;;;;;13.17;6.77;;;6.50;99.90;;;;;;6139810;23;20095;-84
2022/12/28 05:49:00;;;;;;;13.07;6.60;;;6.30;99.90;;;;;;6184772;23;20013;-83
2022/12/28 05:51:41;;;;;;;14.53;6.57;;;6.50;99.90;;;;;;6157788;23;20024;-84
2022/12/28 05:54:27;;;;;;;16.50;7.20;;;6.30;99.90;;;;;;6183592;23;20013;-84
2022/12/28 05:56:53;;;;;;;14.97;6.77;;;6.40;99.90;;;;;;6158030;23;20024;-84
2022/12/28 05:59:18;;;;;;;13.07;5.60;;;7.50;99.90;;;;;;6185975;23;20084;-83
2022/12/28 06:01:50;;;;;;;13.73;6.63;;;5.70;99.90;;;;;;6158426;23;20500;-83
2022/12/28 06:04:24;;;;;;;13.03;6.70;;;7.60;99.90;;;;;;6159628;23;20036;-83
2022/12/28 06:07:14;;;;;;;13.37;6.80;;;6.70;99.90;;;;;;6186244;23;20499;-83
2022/12/28 06:09:40;;;;;;;15.07;7.10;;;7.10;99.90;;;;;;6154559;23;20017;-83
2022/12/28 06:12:09;;;;;;;13.70;7.10;;;6.20;99.90;;;;;;6155283;23;20028;-84
2022/12/28 06:14:34;;;;;;;14.47;7.10;;;6.80;99.90;;;;;;6158782;23;20416;-83
2022/12/28 06:21:32;;;;;;;13.43;7.10;;;6.10;99.90;;;;;;6186094;23;20123;-83
2022/12/28 06:24:01;;;;;;;14.13;6.53;;;6.70;99.90;;;;;;6185608;23;20315;-83
2022/12/28 06:26:45;;;;;;;13.60;6.77;;;6.90;99.90;;;;;;6185996;23;20021;-84
2022/12/28 06:29:11;;;;;;;15.25;7.55;;;6.80;99.90;;;;;;6159197;23;20021;-83
2022/12/28 06:31:47;;;;;;;15.23;8.07;;;7.30;99.90;;;;;;6160122;23;20040;-84
2022/12/28 06:34:13;;;;;;;13.07;6.80;;;6.50;99.90;;;;;;6159677;23;20453;-84
2022/12/28 06:36:42;;;;;;;13.30;7.30;;;8.20;99.90;;;;;;6159088;23;20048;-82
2022/12/28 06:39:09;;;;;;;14.10;6.70;;;8.30;99.90;;;;;;6186007;23;20386;-83
2022/12/28 06:41:54;;;;;;;16.70;9.67;;;6.90;99.90;;;;;;6159766;23;20048;-82
2022/12/28 06:44:46;;;;;;;13.23;7.70;;;8.00;99.90;;;;;;6159097;23;20017;-82
2022/12/28 06:47:14;;;;;;;14.97;7.73;;;6.90;99.90;;;;;;6159335;23;20013;-82
2022/12/28 06:49:39;;;;;;;13.80;7.53;;;8.50;99.90;;;;;;6185176;23;20464;-82
2022/12/28 06:52:05;;;;;;;14.37;7.10;;;7.00;99.90;;;;;;6186272;23;20017;-82
2022/12/28 06:54:31;;;;;;;15.47;8.63;;;7.10;99.90;;;;;;6159134;23;20052;-82
2022/12/28 06:56:56;;;;;;;17.37;8.60;;;7.10;99.90;;;;;;6159010;23;20017;-81
2022/12/28 06:59:22;;;;;;;15.13;8.57;;;8.20;99.90;;;;;;6159050;23;20063;-82
2022/12/28 07:01:47;;;;;;;22.93;15.57;;;8.00;99.90;;;;;;6159547;23;20032;-82
2022/12/28 07:04:32;;;;;;;15.17;8.07;;;7.90;99.90;;;;;;6184677;23;20024;-82
2022/12/28 07:06:57;;;;;;;;;;;8.00;99.90;;;;;;6187042;23;20013;-81
2022/12/28 07:09:25;;;;;;;17.90;8.70;;;9.00;99.90;;;;;;6158861;23;20321;-80
2022/12/28 07:11:51;;;;;;;15.43;8.53;;;8.30;99.90;;;;;;6185339;23;20075;-81
2022/12/28 07:14:17;;;;;;;15.67;8.67;;;7.20;99.90;;;;;;6185350;23;20025;-81
2022/12/28 07:16:43;;;;;;;16.87;8.87;;;7.30;99.90;;;;;;6185971;23;20013;-81
2022/12/28 07:19:09;;;;;;;17.93;9.90;;;7.30;99.90;;;;;;6158303;23;20070;-81
2022/12/28 07:21:37;;;;;;;17.67;10.10;;;7.30;99.90;;;;;;6159165;23;20440;-81
2022/12/28 07:24:04;;;;;;;21.33;14.37;;;8.40;99.90;;;;;;6152668;23;20536;-81
2022/12/28 07:26:32;;;;;;;15.80;9.10;;;7.40;99.90;;;;;;6184370;23;20013;-81
2022/12/28 07:28:59;;;;;;;15.97;9.57;;;7.40;99.90;;;;;;6159306;23;20033;-82
2022/12/28 07:31:27;;;;;;;19.73;11.70;;;7.60;99.90;;;;;;6184140;23;20021;-82
2022/12/28 07:33:54;;;;;;;23.20;14.63;;;7.40;99.90;;;;;;6185941;23;20072;-82
2022/12/28 07:36:21;;;;;;;20.03;11.90;;;7.50;99.90;;;;;;6159025;23;20020;-81
2022/12/28 07:38:47;;;;;;;21.63;13.90;;;7.50;99.90;;;;;;6184742;23;20096;-81
2022/12/28 07:41:25;;;;;;;18.93;12.00;;;7.50;99.90;;;;;;6159057;23;20052;-82
2022/12/28 07:43:51;;;;;;;27.53;18.53;;;7.60;99.90;;;;;;6159307;23;20013;-82
2022/12/28 07:46:20;;;;;;;22.20;14.80;;;7.60;99.90;;;;;;6184478;23;20112;-82
2022/12/28 07:48:59;;;;;;;25.10;16.00;;;7.70;99.90;;;;;;6156442;23;20021;-82
2022/12/28 07:51:30;;;;;;;21.20;13.33;;;7.70;99.90;;;;;;6159056;23;20056;-82
2022/12/28 07:53:58;;;;;;;22.67;13.60;;;7.60;99.90;;;;;;6184749;23;20017;-82
2022/12/28 07:56:25;;;;;;;20.87;12.30;;;7.70;99.90;;;;;;6185235;23;20315;-81
2022/12/28 07:59:12;;;;;;;22.43;13.30;;;8.30;99.90;;;;;;6186807;23;20021;-82
2022/12/28 08:01:49;;;;;;;25.13;15.70;;;7.30;99.90;;;;;;6158403;23;20017;-81
2022/12/28 08:04:15;;;;;;;19.60;11.47;;;9.00;99.90;;;;;;6158960;23;20346;-82
2022/12/28 08:06:45;;;;;;;23.27;11.37;;;7.80;99.90;;;;;;6186241;23;20013;-81
2022/12/28 08:09:13;;;;;;;24.53;15.77;;;9.00;99.90;;;;;;6158693;23;20024;-81
2022/12/28 08:11:59;;;;;;;20.97;12.50;;;7.80;99.90;;;;;;6159090;23;20069;-81
2022/12/28 08:14:24;;;;;;;18.07;10.97;;;7.50;99.90;;;;;;6183382;23;20319;-82
2022/12/28 08:17:15;;;;;;;19.90;11.47;;;9.00;99.90;;;;;;6171063;23;20018;-81
2022/12/28 08:19:41;;;;;;;18.83;11.10;;;7.80;99.90;;;;;;6128840;23;20025;-83
2022/12/28 08:22:06;;;;;;;19.73;11.93;;;7.80;99.90;;;;;;6154429;23;20093;-81
2022/12/28 08:24:34;;;;;;;40.77;25.60;;;7.80;99.90;;;;;;6128762;23;20517;-82
2022/12/28 08:27:06;;;;;;;31.97;19.60;;;7.90;99.90;;;;;;6129025;23;20067;-81
2022/12/28 08:29:32;;;;;;;19.00;10.30;;;8.40;99.90;;;;;;6121450;23;20451;-81
2022/12/28 08:31:57;;;;;;;17.40;10.70;;;7.70;99.90;;;;;;6129074;23;20096;-81
2022/12/28 08:34:25;;;;;;;22.40;17.33;;;7.80;99.90;;;;;;6128817;23;20014;-82
2022/12/28 08:36:54;;;;;;;19.93;12.30;;;7.80;99.90;;;;;;6128328;23;20021;-81
2022/12/28 08:39:20;;;;;;;18.47;9.27;;;7.90;99.90;;;;;;6155082;23;20315;-81
2022/12/28 08:41:45;;;;;;;16.57;8.63;;;7.80;99.90;;;;;;6128301;23;20061;-81
2022/12/28 08:44:11;;;;;;;16.17;9.10;;;8.80;99.90;;;;;;6154688;23;20045;-82
2022/12/28 08:46:45;;;;;;;15.73;8.47;;;7.80;99.90;;;;;;6134871;23;20167;-82
2022/12/28 08:49:11;;;;;;;16.07;8.10;;;7.30;99.90;;;;;;6156746;23;20012;-81
2022/12/28 08:51:40;;;;;;;13.93;7.13;;;7.80;99.90;;;;;;6158234;23;20192;-81
2022/12/28 08:54:24;;;;;;;15.37;8.40;;;8.70;99.90;;;;;;6184577;23;20013;-82
2022/12/28 08:57:10;;;;;;;;;;;9.60;99.90;;;;;;6157502;23;20087;-82
2022/12/28 08:59:36;;;;;;;14.30;7.70;;;;;;;;;;6185070;23;20328;-81
2022/12/28 09:02:12;;;;;;;16.53;8.27;;;7.90;99.90;;;;;;6184659;23;20017;-82
2022/12/28 09:04:40;;;;;;;15.03;8.03;;;7.80;99.90;;;;;;6157557;23;20047;-81
2022/12/28 09:07:05;;;;;;;14.67;9.03;;;8.70;99.90;;;;;;6185332;23;20096;-82
2022/12/28 09:09:33;;;;;;;15.63;7.80;;;;;;;;;;6158303;23;20091;-81
2022/12/28 09:11:59;;;;;;;15.20;8.27;;;7.90;99.90;;;;;;6157680;23;20017;-81
2022/12/28 09:14:32;;;;;;;14.50;7.70;;;8.20;99.90;;;;;;6184957;23;20064;-81
2022/12/28 09:17:06;;;;;;;13.82;7.90;;;7.80;99.90;;;;;;6157803;23;20052;-82
2022/12/28 09:19:32;;;;;;;13.17;7.33;;;7.90;99.90;;;;;;6158045;23;20013;-81
2022/12/28 09:22:19;;;;;;;14.97;8.30;;;8.40;99.90;;;;;;6157436;23;20048;-81
2022/12/28 09:24:57;;;;;;;14.83;8.13;;;8.00;99.90;;;;;;6157387;23;20024;-82
2022/12/28 09:27:29;;;;;;;15.23;7.90;;;8.40;99.90;;;;;;6184445;23;20044;-81
2022/12/28 09:29:54;;;;;;;15.37;8.07;;;9.50;99.90;;;;;;6185250;23;20005;-81
2022/12/28 09:32:20;;;;;;;14.43;6.90;;;8.90;99.90;;;;;;6176909;23;20501;-81
2022/12/28 09:35:04;;;;;;;15.53;7.73;;;9.40;99.90;;;;;;6184913;23;20472;-82
2022/12/28 09:37:30;;;;;;;14.93;7.73;;;7.10;99.90;;;;;;6157902;23;20013;-82
2022/12/28 09:39:55;;;;;;;15.50;7.70;;;8.10;99.90;;;;;;6183508;23;20065;-81
2022/12/28 09:42:31;;;;;;;14.17;7.80;;;9.50;99.90;;;;;;6157466;23;20017;-82
2022/12/28 09:45:03;;;;;;;14.43;7.83;;;7.20;99.90;;;;;;6156629;23;20048;-82
2022/12/28 09:48:20;;;;;;;15.10;7.80;;;8.20;99.90;;;;;;6159283;23;20140;-82
2022/12/28 09:50:47;;;;;;;14.10;7.70;;;8.30;99.90;;;;;;6184690;23;20017;-81
2022/12/28 09:53:29;;;;;;;15.87;8.33;;;7.60;99.90;;;;;;6157288;23;20092;-80
2022/12/28 09:56:33;;;;;;;13.33;6.90;;;8.10;99.90;;;;;;6158889;23;20044;-81
2022/12/28 09:59:00;;;;;;;15.93;8.30;;;8.20;99.90;;;;;;6157731;23;20052;-80
2022/12/28 10:01:44;;;;;;;14.83;8.33;;;8.20;99.90;;;;;;6158314;23;20346;-82
2022/12/28 10:04:31;;;;;;;15.43;7.90;;;8.30;99.90;;;;;;6158161;23;20052;-82
2022/12/28 10:07:15;;;;;;;14.83;8.33;;;8.80;99.90;;;;;;6184435;23;20028;-81
2022/12/28 10:09:46;;;;;;;14.23;7.67;;;9.40;99.90;;;;;;6158485;23;20024;-82
2022/12/28 10:12:25;;;;;;;12.73;6.27;;;10.00;99.90;;;;;;6184681;23;20013;-81
2022/12/28 10:15:00;;;;;;;14.03;7.17;;;8.40;99.90;;;;;;6184322;23;20024;-81
2022/12/28 10:17:39;;;;;;;14.47;7.10;;;9.60;99.90;;;;;;6158259;23;20020;-81
2022/12/28 10:20:08;;;;;;;14.60;7.10;;;8.10;99.90;;;;;;6184124;23;20013;-81
2022/12/28 10:22:55;;;;;;;13.63;7.20;;;8.30;99.90;;;;;;6185307;23;20040;-81
2022/12/28 10:25:36;;;;;;;12.63;6.77;;;8.20;99.90;;;;;;6157531;23;20036;-81
2022/12/28 10:28:06;;;;;;;;;;;7.70;99.90;;;;;;6157719;23;20017;-81
2022/12/28 10:30:32;;;;;;;13.30;7.10;;;8.00;99.90;;;;;;6184787;23;19963;-81
2022/12/28 10:33:14;;;;;;;13.47;6.77;;;8.00;99.90;;;;;;6184940;23;20013;-81
2022/12/28 10:35:56;;;;;;;14.13;7.17;;;9.50;99.90;;;;;;6157015;23;20021;-83
2022/12/28 10:38:34;;;;;;;12.53;6.77;;;8.30;99.90;;;;;;6157022;23;20017;-81
2022/12/28 10:41:03;;;;;;;13.40;6.70;;;8.80;99.90;;;;;;6151075;23;20445;-81
2022/12/28 10:43:40;;;;;;;12.17;5.90;;;8.00;99.90;;;;;;6156816;23;20017;-81
2022/12/28 10:46:21;;;;;;;21.23;13.17;;;7.30;99.90;;;;;;6160183;23;20017;-82
2022/12/28 10:49:02;;;;;;;14.10;7.63;;;9.90;99.90;;;;;;6155479;23;20534;-82
2022/12/28 10:51:30;;;;;;;13.13;7.20;;;10.20;99.90;;;;;;6130256;23;20025;-81
2022/12/28 10:54:23;;;;;;;21.00;11.73;;;9.60;99.90;;;;;;6130478;23;20017;-81
2022/12/28 10:57:17;;;;;;;14.50;6.43;;;7.30;99.90;;;;;;6129927;23;20014;-81
2022/12/28 11:00:29;;;;;;;13.82;7.45;;;8.50;99.90;;;;;;6130402;23;20020;-81
2022/12/28 11:02:55;;;;;;;12.20;6.30;;;8.40;99.90;;;;;;6063736;23;20072;-82
2022/12/28 11:05:24;;;;;;;12.87;6.47;;;9.50;99.90;;;;;;6156389;23;20022;-81
2022/12/28 11:08:04;;;;;;;13.00;6.73;;;8.40;99.90;;;;;;6156700;23;20067;-81
2022/12/28 11:10:40;;;;;;;17.10;9.67;;;8.40;99.90;;;;;;6129801;23;20021;-81
2022/12/28 11:13:26;;;;;;;11.73;5.72;;;9.50;99.90;;;;;;6157007;23;20037;-81
2022/12/28 11:15:54;;;;;;;21.53;13.63;;;8.40;99.90;;;;;;6130665;23;20342;-81
2022/12/28 11:18:40;;;;;;;20.27;13.67;;;10.10;99.90;;;;;;6155792;23;20020;-82
2022/12/28 11:21:26;;;;;;;10.67;4.70;;;9.90;99.90;;;;;;6127918;23;20020;-82
2022/12/28 11:23:52;;;;;;;12.53;6.40;;;8.40;99.90;;;;;;6046764;23;20152;-82
2022/12/28 11:26:19;;;;;;;16.37;9.50;;;9.20;99.90;;;;;;6133204;23;20052;-82
2022/12/28 11:28:50;;;;;;;14.40;7.53;;;10.10;99.90;;;;;;6155897;23;20060;-82
2022/12/28 11:31:40;;;;;;;13.40;5.73;;;8.40;99.90;;;;;;6152984;23;20049;-82
2022/12/28 11:34:16;;;;;;;12.57;6.13;;;10.10;99.90;;;;;;6153159;23;20052;-82
2022/12/28 11:36:57;;;;;;;11.50;6.07;;;8.10;99.90;;;;;;6154547;23;20013;-82
2022/12/28 11:39:26;;;;;;;11.87;5.57;;;9.10;99.90;;;;;;6153387;23;20028;-82
2022/12/28 11:42:43;;;;;;;12.83;6.13;;;9.70;99.90;;;;;;6150830;23;20071;-83
2022/12/28 11:45:13;;;;;;;12.53;5.70;;;10.10;99.90;;;;;;6152746;23;20338;-82
2022/12/28 11:47:51;;;;;;;11.77;6.40;;;8.50;99.90;;;;;;6156685;23;20021;-82
2022/12/28 11:50:49;;;;;;;11.23;5.63;;;9.20;99.90;;;;;;6153494;23;20088;-82
2022/12/28 11:53:33;;;;;;;12.40;5.47;;;9.10;99.90;;;;;;6154957;23;20018;-82
2022/12/28 11:56:15;;;;;;;10.95;4.75;;;8.60;99.90;;;;;;6155376;23;20395;-82
2022/12/28 11:59:02;;;;;;;14.43;7.30;;;9.80;99.90;;;;;;6153727;23;20067;-82
2022/12/28 12:01:28;;;;;;;11.50;5.50;;;10.10;99.90;;;;;;6154282;23;20028;-82
2022/12/28 12:04:10;;;;;;;9.87;4.57;;;9.40;99.90;;;;;;6179998;23;20096;-82
2022/12/28 12:06:42;;;;;;;11.47;5.93;;;8.60;99.90;;;;;;6185225;23;20013;-82
2022/12/28 12:09:37;;;;;;;13.43;6.23;;;9.60;99.90;;;;;;6185936;23;20013;-82
2022/12/28 12:12:18;;;;;;;10.77;4.40;;;8.60;99.90;;;;;;6184238;23;20020;-82
2022/12/28 12:15:09;;;;;;;16.30;8.13;;;9.80;99.90;;;;;;6158258;23;20345;-82
2022/12/28 12:17:50;;;;;;;14.37;7.77;;;8.50;99.90;;;;;;6185898;23;20089;-82
2022/12/28 12:21:13;;;;;;;8.93;3.80;;;10.30;99.90;;;;;;6157894;23;20055;-82
2022/12/28 12:24:08;;;;;;;13.43;6.93;;;8.60;99.90;;;;;;6086450;23;20021;-82
2022/12/28 12:26:57;;;;;;;14.53;6.20;;;9.60;99.90;;;;;;6159125;23;20042;-82
2022/12/28 12:29:45;;;;;;;15.30;7.10;;;9.80;99.90;;;;;;6185658;23;20036;-83
2022/12/28 12:33:02;;;;;;;12.17;6.23;;;8.70;99.90;;;;;;6185515;23;20013;-83
2022/12/28 12:35:58;;;;;;;20.17;9.63;;;9.10;99.90;;;;;;6174677;23;20056;-82
2022/12/28 12:39:09;;;;;;;19.53;9.23;;;8.50;99.90;;;;;;6155397;23;20024;-82
2022/12/28 12:42:02;;;;;;;8.90;4.03;;;9.90;99.90;;;;;;6181401;23;20021;-82
2022/12/28 12:45:00;;;;;;;17.73;8.37;;;8.70;99.90;;;;;;6156126;23;20025;-82
2022/12/28 12:48:01;;;;;;;;;;;;;;;;;;;;;
2022/12/28 12:50:56;;;;;;;9.60;4.50;;;8.50;99.90;;;;;;6183828;23;20095;-82
2022/12/28 12:53:44;;;;;;;10.53;4.57;;;8.50;99.90;;;;;;6185112;23;20442;-82
2022/12/28 12:56:36;;;;;;;14.93;7.47;;;8.50;99.90;;;;;;6183209;23;20016;-83
2022/12/28 12:59:23;;;;;;;9.97;4.90;;;8.60;99.90;;;;;;6157231;23;20025;-83
2022/12/28 13:01:52;;;;;;;9.17;3.60;;;8.50;99.90;;;;;;6157110;23;20013;-83
2022/12/28 13:04:22;;;;;;;10.63;5.00;;;8.50;99.90;;;;;;6156334;23;20020;-82
2022/12/28 13:06:53;;;;;;;10.10;4.27;;;8.50;99.90;;;;;;6157382;23;20020;-82
2022/12/28 13:09:20;;;;;;;10.50;4.93;;;9.10;99.90;;;;;;6156168;23;20101;-83
2022/12/28 13:12:00;;;;;;;9.47;4.10;;;8.50;99.90;;;;;;6157337;23;20024;-82
2022/12/28 13:14:35;;;;;;;9.07;4.13;;;9.80;99.90;;;;;;6157181;23;20020;-83
2022/12/28 13:17:01;;;;;;;12.80;7.03;;;9.70;99.90;;;;;;6155849;23;20327;-82
2022/12/28 13:19:28;;;;;;;10.23;4.70;;;10.30;99.90;;;;;;6156865;23;20092;-83
2022/12/28 13:22:58;;;;;;;8.63;4.10;;;9.00;99.90;;;;;;6181770;23;20116;-82
2022/12/28 13:25:32;;;;;;;9.00;3.60;;;10.00;99.90;;;;;;6151419;23;20017;-82
2022/12/28 13:28:18;;;;;;;9.10;3.43;;;8.60;99.90;;;;;;6157037;23;20021;-82
2022/12/28 13:31:15;;;;;;;9.93;3.90;;;7.30;99.90;;;;;;6182699;23;20418;-82
2022/12/28 13:34:02;;;;;;;10.30;4.27;;;8.60;99.90;;;;;;6156000;23;20024;-82
2022/12/28 13:36:34;;;;;;;11.40;4.00;;;9.80;99.90;;;;;;6183485;23;20025;-83
2022/12/28 13:39:27;;;;;;;15.20;7.30;;;10.20;99.90;;;;;;6155661;23;20059;-83
2022/12/28 13:42:34;;;;;;;13.87;8.10;;;10.40;99.90;;;;;;6183922;23;20036;-82
2022/12/28 13:45:06;;;;;;;10.43;5.67;;;8.60;99.90;;;;;;6155810;23;20862;-83
2022/12/28 13:47:39;;;;;;;10.90;5.60;;;8.70;99.90;;;;;;6182747;23;20051;-83
2022/12/28 13:50:22;;;;;;;10.03;3.97;;;8.60;99.90;;;;;;6156745;23;20013;-83
2022/12/28 13:53:06;;;;;;;7.97;3.53;;;10.00;99.90;;;;;;6155758;23;20043;-83
2022/12/28 13:56:02;;;;;;;8.10;3.60;;;10.10;99.90;;;;;;6156383;23;20013;-83
2022/12/28 13:59:14;;;;;;;8.10;3.53;;;8.60;99.90;;;;;;6153560;23;20028;-84
2022/12/28 14:01:43;;;;;;;8.57;3.83;;;8.70;99.90;;;;;;6116894;23;20013;-82
2022/12/28 14:07:42;;;;;;;8.57;3.30;;;8.60;99.90;;;;;;6155565;23;20021;-83
2022/12/28 14:10:27;;;;;;;7.70;3.13;;;7.90;99.90;;;;;;6183228;23;20013;-82
2022/12/28 14:12:53;;;;;;;8.43;3.17;;;8.30;99.90;;;;;;6156182;23;20473;-82
2022/12/28 14:15:35;;;;;;;8.18;3.10;;;8.80;99.90;;;;;;6156176;23;20064;-82
2022/12/28 14:18:17;;;;;;;9.67;4.17;;;9.80;99.90;;;;;;6156341;23;20087;-82
2022/12/28 14:21:08;;;;;;;8.23;3.67;;;10.10;99.90;;;;;;6158710;23;20013;-82
2022/12/28 14:23:55;;;;;;;9.53;4.07;;;8.90;99.90;;;;;;6185672;23;20013;-82
2022/12/28 14:26:21;;;;;;;9.43;4.20;;;8.50;99.90;;;;;;6157663;23;20525;-82
2022/12/28 14:29:11;;;;;;;8.73;3.83;;;9.40;99.90;;;;;;6159636;23;20017;-82
2022/12/28 14:31:54;;;;;;;9.13;3.63;;;9.30;99.90;;;;;;6158829;23;20065;-82
2022/12/28 14:34:39;;;;;;;9.02;4.03;;;10.30;99.90;;;;;;6184999;23;20013;-82